Time;durP1;ratioP1;P1;durP2;ratioP2;P2;SDS_P1;SDS_P2;PMS_P1;PMS_P2;Temp;Humidity;BMP_temperature;BMP_pressure;BME280_temperature;BME280_humidity;BME280_pressure;Samples;Min_cycle;Max_cycle;Signal;HPM_P1;HPM_P2
2023/03/20 00:02:25;;;;;;;59.60;35.88;;;;;;;4.29;76.32;97976.81;10406325;28;20036;-53
2023/03/20 00:07:25;;;;;;;55.25;33.33;;;;;;;4.26;76.38;97956.19;10407313;28;20072;-53
2023/03/20 00:12:25;;;;;;;53.72;33.55;;;;;;;4.09;76.46;97939.44;10407336;28;20498;-55
2023/03/20 00:17:24;;;;;;;63.72;39.15;;;;;;;4.19;76.40;97953.41;10409878;28;20068;-53
2023/03/20 00:22:23;;;;;;;53.72;34.40;;;;;;;4.17;76.24;97940.50;10408419;28;20060;-53
2023/03/20 00:27:22;;;;;;;48.67;30.02;;;;;;;4.11;76.75;97944.63;10408954;28;20076;-53
2023/03/20 00:32:21;;;;;;;50.70;30.05;;;;;;;3.61;76.33;97866.25;10398056;28;20042;-52
2023/03/20 00:37:20;;;;;;;45.88;29.85;;;;;;;3.97;76.97;97932.28;10398912;28;20032;-53
2023/03/20 00:42:23;;;;;;;42.75;26.50;;;;;;;3.96;76.87;97935.66;10404807;28;20402;-53
2023/03/20 00:47:23;;;;;;;73.75;46.42;;;;;;;3.85;77.22;97927.66;10405504;28;20474;-53
2023/03/20 00:52:23;;;;;;;56.83;34.42;;;;;;;3.82;77.32;97927.59;10406153;28;20052;-53
2023/03/20 00:57:37;;;;;;;44.30;27.52;;;;;;;3.75;77.56;97907.72;10405287;28;20115;-53
2023/03/20 01:02:36;;;;;;;46.05;28.42;;;;;;;3.75;77.71;97917.09;10405042;28;20115;-54
2023/03/20 01:07:35;;;;;;;30.08;19.98;;;;;;;3.63;77.49;97904.78;10404247;28;20079;-53
2023/03/20 01:12:34;;;;;;;29.83;17.77;;;;;;;3.51;77.81;97904.44;10404374;28;20111;-53
2023/03/20 01:17:33;;;;;;;27.15;18.02;;;;;;;3.41;77.97;97908.44;10403610;28;20078;-53
2023/03/20 01:22:32;;;;;;;28.20;18.17;;;;;;;3.25;78.41;97901.97;10402122;28;20498;-53
2023/03/20 01:27:31;;;;;;;26.88;17.65;;;;;;;3.22;78.49;97902.75;10404317;28;21700;-53
2023/03/20 01:32:30;;;;;;;30.70;18.25;;;;;;;3.20;78.10;97891.56;10405048;28;20397;-53
2023/03/20 01:37:29;;;;;;;29.73;19.77;;;;;;;3.16;78.85;97886.28;10403348;28;20123;-53
2023/03/20 01:42:29;;;;;;;30.23;20.15;;;;;;;3.11;79.53;97895.56;10405109;28;20450;-53
2023/03/20 01:47:28;;;;;;;30.98;20.45;;;;;;;3.08;79.40;97887.78;10404452;28;20063;-53
2023/03/20 01:52:27;;;;;;;32.05;19.65;;;;;;;3.08;79.16;97898.03;10405143;28;20036;-53
2023/03/20 01:57:26;;;;;;;37.78;23.58;;;;;;;3.06;79.27;97900.53;10446348;28;20060;-53
2023/03/20 02:02:29;;;;;;;57.00;34.33;;;;;;;2.93;79.54;97899.31;10405827;28;20102;-53
2023/03/20 02:07:29;;;;;;;35.67;23.20;;;;;;;2.81;79.82;97883.50;10405433;28;20071;-52
2023/03/20 02:12:28;;;;;;;45.38;25.65;;;;;;;2.89;79.65;97907.72;10405371;28;20108;-53
2023/03/20 02:17:27;;;;;;;54.03;30.08;;;;;;;2.90;80.06;97903.44;10405497;28;20048;-53
2023/03/20 02:22:32;;;;;;;52.20;30.77;;;;;;;2.89;80.13;97900.03;10407221;28;20036;-53
2023/03/20 02:27:34;;;;;;;44.95;26.30;;;;;;;2.85;79.54;97895.59;10412492;28;20079;-52
2023/03/20 02:32:51;;;;;;;40.20;25.77;;;;;;;2.80;79.50;97892.91;10412767;28;20509;-53
2023/03/20 02:38:24;;;;;;;40.88;25.42;;;;;;;2.74;80.41;97885.00;10413063;28;20071;-53
2023/03/20 02:43:47;;;;;;;46.55;26.67;;;;;;;2.57;79.99;97858.84;10413045;28;20075;-53
2023/03/20 02:49:01;;;;;;;47.40;27.52;;;;;;;2.63;80.31;97882.91;10412475;28;20102;-53
2023/03/20 02:54:09;;;;;;;52.10;29.80;;;;;;;2.63;79.76;97880.34;10412812;28;20064;-53
2023/03/20 02:59:19;;;;;;;52.75;30.05;;;;;;;2.63;79.80;97882.91;10412197;28;20063;-53
2023/03/20 03:04:23;;;;;;;52.35;30.58;;;;;;;2.64;80.09;97885.53;10411969;28;20123;-52
2023/03/20 03:09:28;;;;;;;46.67;28.70;;;;;;;2.63;79.50;97888.94;10412264;28;20071;-53
2023/03/20 03:14:43;;;;;;;79.40;42.10;;;;;;;2.57;80.29;97884.47;10411934;28;20048;-52
2023/03/20 03:19:49;;;;;;;121.80;60.67;;;;;;;2.56;79.86;97881.88;10411766;28;20501;-53
2023/03/20 03:24:51;;;;;;;168.02;80.07;;;;;;;2.58;80.01;97882.78;10410435;28;20060;-52
2023/03/20 03:29:56;;;;;;;51.88;27.90;;;;;;;2.50;80.21;97879.09;10409529;28;20099;-52
2023/03/20 03:34:56;;;;;;;133.93;65.28;;;;;;;2.49;79.88;97875.69;10411013;28;20607;-53
2023/03/20 03:40:13;;;;;;;74.20;39.80;;;;;;;2.50;79.66;97869.72;10411040;28;20082;-53
2023/03/20 03:45:21;;;;;;;69.47;39.47;;;;;;;2.38;80.42;97874.44;10410995;28;20115;-53
2023/03/20 03:50:39;;;;;;;67.18;47.20;;;;;;;2.33;80.43;97874.31;10410413;28;20064;-52
2023/03/20 03:55:44;;;;;;;49.60;29.13;;;;;;;2.28;80.40;97865.59;10410407;28;20060;-52
2023/03/20 04:00:46;;;;;;;50.75;27.35;;;;;;;2.29;80.56;97872.44;10410359;28;20084;-53
2023/03/20 04:05:46;;;;;;;96.40;57.70;;;;;;;2.29;80.86;97882.69;10410365;28;20120;-52
2023/03/20 04:10:45;;;;;;;44.33;25.30;;;;;;;2.21;80.72;97883.25;10410222;28;20056;-52
2023/03/20 04:15:45;;;;;;;39.33;23.17;;;;;;;2.21;81.17;97873.91;10406429;28;20032;-53
2023/03/20 04:20:45;;;;;;;;;;;;;;;2.13;81.31;97873.63;10407536;28;20052;-53
2023/03/20 04:25:43;;;;;;;36.75;22.83;;;;;;;1.73;81.42;97818.50;10405939;28;20047;-54
2023/03/20 04:30:46;;;;;;;37.97;23.42;;;;;;;1.99;82.00;97871.41;10406630;28;20040;-53
2023/03/20 04:35:45;;;;;;;41.92;25.42;;;;;;;2.01;82.02;97867.22;10407174;28;20067;-53
2023/03/20 04:40:46;;;;;;;39.65;25.85;;;;;;;2.04;81.51;97864.75;10406195;28;20125;-53
2023/03/20 04:45:45;;;;;;;52.03;29.77;;;;;;;2.09;81.52;97871.78;10405251;28;20103;-54
2023/03/20 04:50:47;;;;;;;36.58;23.67;;;;;;;2.15;81.93;97871.97;10407249;28;20117;-53
2023/03/20 04:55:46;;;;;;;44.38;24.55;;;;;;;2.29;81.40;97874.16;10407320;28;20068;-53
2023/03/20 05:00:45;;;;;;;87.05;52.88;;;;;;;2.32;81.80;97885.34;10407699;28;20067;-53
2023/03/20 05:05:44;;;;;;;52.58;29.90;;;;;;;2.44;81.75;97887.47;10406153;28;20063;-53
2023/03/20 05:10:44;;;;;;;37.20;21.90;;;;;;;2.46;81.61;97875.56;10405702;28;20071;-53
2023/03/20 05:15:43;;;;;;;33.72;21.58;;;;;;;2.70;81.74;97889.97;10407719;28;20072;-53
2023/03/20 05:20:42;;;;;;;37.35;21.67;;;;;;;2.85;81.63;97890.47;10406393;28;20128;-54
2023/03/20 05:25:41;;;;;;;35.17;20.30;;;;;;;3.05;81.66;97892.78;10405764;28;20063;-53
2023/03/20 05:30:40;;;;;;;38.35;23.83;;;;;;;3.19;80.91;97900.09;10404069;28;20032;-53
2023/03/20 05:35:39;;;;;;;34.38;22.98;;;;;;;3.36;81.59;97895.47;10404839;28;20139;-54
2023/03/20 05:40:40;;;;;;;33.08;23.20;;;;;;;3.47;80.93;97888.06;10404520;28;20075;-53
2023/03/20 05:45:42;;;;;;;35.08;23.58;;;;;;;3.75;80.51;97917.09;10404702;28;20048;-53
2023/03/20 05:50:41;;;;;;;51.80;32.55;;;;;;;3.89;80.54;97902.94;10401971;28;20119;-53
2023/03/20 05:55:40;;;;;;;73.53;44.78;;;;;;;3.97;80.34;97891.19;10403260;28;20067;-52
2023/03/20 06:00:40;;;;;;;58.58;38.67;;;;;;;4.31;79.40;97911.75;10401235;28;20123;-53
2023/03/20 06:05:39;;;;;;;70.25;44.97;;;;;;;4.59;78.46;97910.78;10402521;28;20136;-54
2023/03/20 06:10:38;;;;;;;76.75;46.00;;;;;;;4.74;77.12;97915.44;10403259;28;20071;-53
2023/03/20 06:15:37;;;;;;;76.20;46.58;;;;;;;4.65;76.16;97855.25;10404656;28;20123;-55
2023/03/20 06:20:36;;;;;;;71.10;48.60;;;;;;;5.21;75.44;97941.44;10434481;28;20052;-54
2023/03/20 06:25:35;;;;;;;78.50;53.72;;;;;;;5.33;75.29;97908.28;10402634;28;20037;-54
2023/03/20 06:30:34;;;;;;;64.78;39.72;;;;;;;5.53;74.86;97914.72;10404113;28;20125;-54
2023/03/20 06:35:33;;;;;;;66.13;38.33;;;;;;;5.76;74.64;97924.63;10405744;28;20072;-54
2023/03/20 06:40:32;;;;;;;53.15;32.88;;;;;;;6.05;74.78;97917.50;10400091;28;20047;-54
2023/03/20 06:45:31;;;;;;;;;;;;;;;6.43;73.89;97919.06;10418597;28;20060;-55
2023/03/20 06:50:31;;;;;;;65.38;42.90;;;;;;;6.75;72.64;97914.44;10405259;28;19935;-54
2023/03/20 06:55:30;;;;;;;;;;;;;;;7.04;72.19;97902.88;10402044;28;21070;-54
2023/03/20 07:00:29;;;;;;;74.22;49.30;;;;;;;7.34;69.61;97903.31;10378834;28;21188;-54
2023/03/20 07:05:28;;;;;;;77.47;47.60;;;;;;;7.66;68.95;97890.84;10384568;28;20068;-54
2023/03/20 07:10:27;;;;;;;72.75;49.97;;;;;;;7.88;67.74;97864.44;10371572;28;20021;-54
2023/03/20 07:15:26;;;;;;;63.53;44.47;;;;;;;8.38;64.90;97881.31;10374089;28;20080;-54
2023/03/20 07:20:25;;;;;;;66.03;41.15;;;;;;;8.58;64.18;97880.66;10380010;28;20089;-54
2023/03/20 07:25:24;;;;;;;;;;;;;;;9.00;63.39;97882.72;10414371;28;20119;-54
2023/03/20 07:30:23;;;;;;;63.08;40.88;;;;;;;9.18;62.80;97875.94;10413771;28;19916;-54
2023/03/20 07:35:23;;;;;;;55.15;34.65;;;;;;;9.35;62.36;97876.94;10406222;28;20044;-53
2023/03/20 07:40:22;;;;;;;47.88;32.55;;;;;;;9.58;62.38;97877.03;10406514;28;20119;-53
2023/03/20 07:45:21;;;;;;;39.65;26.00;;;;;;;9.44;62.74;97851.09;10407581;28;20025;-53
2023/03/20 07:50:19;;;;;;;43.25;26.35;;;;;;;9.69;63.23;97853.78;10404023;28;20020;-54
2023/03/20 07:55:19;;;;;;;35.53;24.45;;;;;;;10.03;63.80;97865.16;10403458;28;20024;-53
2023/03/20 08:00:18;;;;;;;34.35;23.33;;;;;;;10.43;61.26;97866.97;10405503;28;20109;-54
2023/03/20 08:05:17;;;;;;;36.63;23.50;;;;;;;10.84;60.48;97867.81;10408089;28;20064;-54
2023/03/20 08:10:16;;;;;;;28.48;19.52;;;;;;;11.23;58.37;97863.50;10405962;28;20035;-55
2023/03/20 08:15:15;;;;;;;23.35;16.42;;;;;;;11.21;57.36;97860.03;10402331;28;20032;-54
2023/03/20 08:20:16;;;;;;;20.33;15.38;;;;;;;11.66;57.62;97873.75;10406808;28;20075;-54
2023/03/20 08:25:15;;;;;;;20.15;12.40;;;;;;;11.98;57.63;97867.56;10408105;28;20119;-54
2023/03/20 08:30:15;;;;;;;16.63;10.63;;;;;;;12.38;55.60;97869.13;10367336;28;20537;-54
2023/03/20 08:35:14;;;;;;;17.65;10.05;;;;;;;12.86;54.38;97874.84;10386666;28;20064;-55
2023/03/20 08:40:13;;;;;;;;;;;;;;;13.14;52.92;97876.34;10408127;28;20090;-55
2023/03/20 08:45:12;;;;;;;13.60;8.00;;;;;;;13.17;51.19;97827.69;10407260;28;19924;-55
2023/03/20 08:50:11;;;;;;;14.98;7.13;;;;;;;13.63;49.82;97853.28;10401016;28;20470;-54
2023/03/20 08:55:11;;;;;;;12.30;7.07;;;;;;;13.97;48.65;97859.81;10406892;28;20507;-55
2023/03/20 09:00:13;;;;;;;16.17;7.72;;;;;;;14.39;47.17;97857.47;10406978;28;20076;-54
2023/03/20 09:05:12;;;;;;;11.68;6.57;;;;;;;14.78;46.10;97838.63;10407049;28;20060;-54
2023/03/20 09:10:11;;;;;;;;;;;;;;;14.84;43.69;97843.75;10406074;28;20031;-55
2023/03/20 09:15:10;;;;;;;14.40;7.40;;;;;;;15.10;42.98;97829.38;10403948;28;20443;-55
2023/03/20 09:20:10;;;;;;;11.30;6.95;;;;;;;15.32;42.44;97824.63;10405753;28;20062;-55
2023/03/20 09:25:09;;;;;;;13.13;6.72;;;;;;;15.72;43.03;97823.84;10406723;28;20059;-55
2023/03/20 09:30:09;;;;;;;8.30;5.70;;;;;;;15.99;39.42;97817.19;10406135;28;20044;-55
2023/03/20 09:35:08;;;;;;;11.40;7.03;;;;;;;16.28;39.24;97813.94;10405241;28;20489;-55
2023/03/20 09:40:18;;;;;;;11.40;6.95;;;;;;;16.55;38.40;97790.59;10403518;28;20108;-55
2023/03/20 09:45:42;;;;;;;11.88;7.22;;;;;;;16.83;37.50;97802.16;10421153;28;20060;-55
2023/03/20 09:51:02;;;;;;;10.52;6.55;;;;;;;16.93;36.27;97784.41;10423820;28;20056;-55
2023/03/20 09:56:01;;;;;;;13.05;6.70;;;;;;;17.22;36.71;97774.94;10398126;28;20068;-55
2023/03/20 10:01:03;;;;;;;11.52;6.30;;;;;;;17.39;36.06;97753.47;10409603;28;20064;-55
2023/03/20 10:06:04;;;;;;;11.65;6.28;;;;;;;17.72;35.98;97768.22;10406399;28;20102;-55
2023/03/20 10:11:31;;;;;;;14.00;6.50;;;;;;;17.94;35.49;97762.38;10407838;28;20064;-55
2023/03/20 10:17:01;;;;;;;10.48;5.65;;;;;;;18.09;35.01;97750.56;10405848;28;20068;-55
2023/03/20 10:22:16;;;;;;;9.90;5.38;;;;;;;18.33;33.23;97738.41;10407447;28;20067;-55
2023/03/20 10:27:39;;;;;;;8.30;4.60;;;;;;;18.41;30.00;97736.38;10407269;28;20080;-55
2023/03/20 10:32:49;;;;;;;9.82;4.70;;;;;;;18.77;28.72;97723.78;10406093;28;20067;-54
2023/03/20 10:37:47;;;;;;;8.30;4.70;;;;;;;19.06;27.71;97714.03;10407747;28;20795;-55
2023/03/20 10:42:50;;;;;;;6.97;4.32;;;;;;;19.26;25.66;97705.41;10408932;28;20723;-55
2023/03/20 10:47:51;;;;;;;8.48;4.15;;;;;;;19.39;26.11;97693.53;10430734;28;20149;-55
2023/03/20 10:52:54;;;;;;;17.23;4.75;;;;;;;19.70;26.51;97681.88;10415038;28;20080;-55
2023/03/20 10:58:00;;;;;;;7.03;3.33;;;;;;;20.16;25.95;97687.91;10414422;28;20075;-55
2023/03/20 11:02:59;;;;;;;5.50;2.90;;;;;;;20.45;24.19;97688.53;10415682;28;20071;-55
2023/03/20 11:08:02;;;;;;;7.45;3.88;;;;;;;20.69;24.13;97682.22;10413139;28;20028;-55
2023/03/20 11:13:18;;;;;;;72.63;9.30;;;;;;;21.04;23.76;97678.97;10414268;28;20072;-55
2023/03/20 11:18:17;;;;;;;4.65;3.33;;;;;;;21.10;22.35;97645.25;10409807;28;20076;-56
2023/03/20 11:23:20;;;;;;;8.98;3.80;;;;;;;21.39;21.76;97658.06;10409341;28;20024;-56
2023/03/20 11:28:25;;;;;;;10.55;4.40;;;;;;;21.60;22.20;97648.31;10410167;28;20060;-56
2023/03/20 11:33:26;;;;;;;47.88;7.13;;;;;;;21.74;22.28;97646.69;10414101;28;20668;-55
2023/03/20 11:38:30;;;;;;;9.80;4.25;;;;;;;21.78;22.06;97647.44;10414123;28;20521;-56
2023/03/20 11:43:37;;;;;;;7.32;3.78;;;;;;;21.76;21.69;97641.34;10412885;28;20094;-55
2023/03/20 11:48:41;;;;;;;8.05;3.60;;;;;;;21.66;21.78;97621.56;10413435;28;20060;-55
2023/03/20 11:53:53;;;;;;;4.35;2.80;;;;;;;21.70;21.26;97617.88;10413299;28;20068;-56
2023/03/20 11:59:22;;;;;;;5.55;3.00;;;;;;;21.52;21.90;97616.94;10411655;28;20068;-56
2023/03/20 12:04:42;;;;;;;4.30;3.10;;;;;;;21.50;21.01;97603.84;10408093;28;20124;-55
2023/03/20 12:09:45;;;;;;;4.75;3.40;;;;;;;21.55;21.14;97603.63;10409332;28;20115;-55
2023/03/20 12:15:15;;;;;;;6.20;3.30;;;;;;;21.69;21.74;97587.97;10408640;28;20071;-57
2023/03/20 12:20:45;;;;;;;4.72;3.00;;;;;;;21.99;21.03;97592.69;10411417;28;20067;-57
2023/03/20 12:25:47;;;;;;;;;;;;;;;22.32;20.70;97582.22;10413270;28;20462;-55
2023/03/20 12:31:06;;;;;;;8.27;3.47;;;;;;;22.51;21.37;97578.63;10412676;28;19955;-55
2023/03/20 12:36:12;;;;;;;8.30;3.70;;;;;;;22.30;21.30;97576.16;10412778;28;20071;-56
2023/03/20 12:41:22;;;;;;;5.38;3.70;;;;;;;22.23;21.17;97534.28;10412498;28;20090;-56
2023/03/20 12:46:39;;;;;;;5.28;3.40;;;;;;;22.51;20.58;97570.69;10412251;28;20481;-57
2023/03/20 12:51:53;;;;;;;5.65;3.42;;;;;;;22.57;20.23;97554.50;10412370;28;20071;-56
2023/03/20 12:56:58;;;;;;;6.45;3.70;;;;;;;22.55;21.16;97546.66;10411687;28;20056;-56
2023/03/20 13:02:13;;;;;;;7.30;3.58;;;;;;;22.43;21.19;97549.94;10411873;28;20072;-56
2023/03/20 13:07:20;;;;;;;12.07;3.95;;;;;;;22.32;21.84;97546.97;10401590;28;20123;-56
2023/03/20 13:12:28;;;;;;;10.43;3.70;;;;;;;22.26;21.47;97542.03;10403715;28;20064;-56
2023/03/20 13:17:53;;;;;;;6.15;4.10;;;;;;;22.04;21.30;97534.31;10406485;28;20060;-56
2023/03/20 13:23:04;;;;;;;11.75;5.95;;;;;;;21.97;21.02;97531.97;10403810;28;20095;-56
2023/03/20 13:28:21;;;;;;;11.32;8.45;;;;;;;21.88;21.23;97531.59;10409212;28;20083;-57
2023/03/20 13:33:44;;;;;;;6.50;3.60;;;;;;;21.91;21.22;97534.91;10409774;28;20074;-56
2023/03/20 13:38:52;;;;;;;7.70;4.22;;;;;;;21.97;21.37;97516.13;10407470;28;20052;-57
2023/03/20 13:44:03;;;;;;;5.97;3.70;;;;;;;21.99;21.28;97512.56;10408937;28;20064;-56
2023/03/20 13:49:19;;;;;;;35.28;6.13;;;;;;;22.07;21.79;97505.97;10399119;28;20067;-56
2023/03/20 13:54:45;;;;;;;8.63;4.00;;;;;;;22.08;21.50;97496.25;10402852;28;20102;-56
2023/03/20 13:59:53;;;;;;;4.45;3.45;;;;;;;22.11;20.58;97496.97;10409383;28;20567;-56
2023/03/20 14:05:04;;;;;;;4.55;3.40;;;;;;;21.94;20.10;97426.47;10407276;28;20857;-56
2023/03/20 14:10:21;;;;;;;46.53;7.35;;;;;;;22.28;20.93;97477.56;10408709;28;20525;-57
2023/03/20 14:15:21;;;;;;;9.57;5.00;;;;;;;22.32;20.88;97467.66;10408648;28;20052;-56
2023/03/20 14:20:32;;;;;;;11.70;7.13;;;;;;;22.13;20.97;97463.38;10407955;28;20075;-56
2023/03/20 14:25:40;;;;;;;7.82;5.07;;;;;;;21.91;21.48;97442.47;10408748;28;20075;-56
2023/03/20 14:30:48;;;;;;;7.03;4.63;;;;;;;22.10;22.52;97474.09;10408496;28;20088;-56
2023/03/20 14:35:50;;;;;;;7.18;4.30;;;;;;;21.81;22.46;97472.94;10408385;28;20891;-55
2023/03/20 14:41:12;;;;;;;7.63;4.65;;;;;;;21.60;23.04;97471.38;10408950;28;20082;-56
2023/03/20 14:46:37;;;;;;;9.38;5.60;;;;;;;21.59;23.07;97473.13;10408732;28;20068;-56
2023/03/20 14:51:42;;;;;;;13.35;7.05;;;;;;;20.55;23.92;97341.88;10396269;28;20101;-56
2023/03/20 14:56:42;;;;;;;9.38;5.63;;;;;;;21.09;24.68;97456.19;10407873;28;20064;-56
2023/03/20 15:01:44;;;;;;;11.05;5.90;;;;;;;20.99;24.70;97460.22;10398571;28;20486;-56
2023/03/20 15:07:14;;;;;;;14.75;8.40;;;;;;;20.85;24.97;97460.88;10406734;28;20080;-55
2023/03/20 15:12:16;;;;;;;11.88;8.02;;;;;;;20.65;25.87;97467.06;10406621;28;20072;-55
2023/03/20 15:17:33;;;;;;;12.73;7.05;;;;;;;20.59;25.90;97475.25;10406104;28;20486;-55
2023/03/20 15:22:32;;;;;;;8.65;5.68;;;;;;;20.44;25.90;97465.41;10405469;28;21169;-55
2023/03/20 15:27:32;;;;;;;8.48;5.60;;;;;;;20.45;26.19;97486.44;10404719;28;20082;-56
2023/03/20 15:32:33;;;;;;;9.68;5.53;;;;;;;20.27;25.62;97484.59;10413904;28;20076;-55
2023/03/20 15:37:33;;;;;;;10.82;7.05;;;;;;;20.11;26.29;97473.84;10413074;28;20570;-55
2023/03/20 15:42:32;;;;;;;14.98;8.13;;;;;;;20.09;26.72;97486.25;10412155;28;20059;-55
2023/03/20 15:47:34;;;;;;;16.95;7.50;;;;;;;19.78;26.79;97449.84;10413077;28;20031;-55
2023/03/20 15:52:42;;;;;;;14.25;8.18;;;;;;;19.83;26.75;97477.69;10414706;28;20071;-55
2023/03/20 15:57:43;;;;;;;15.97;8.47;;;;;;;19.91;27.03;97489.66;10414558;28;20072;-55
2023/03/20 16:02:45;;;;;;;17.40;11.82;;;;;;;19.58;27.73;97491.03;10414514;28;20078;-55
2023/03/20 16:07:44;;;;;;;18.67;10.60;;;;;;;19.32;27.62;97494.72;10399746;28;20069;-55
2023/03/20 16:12:49;;;;;;;20.98;11.77;;;;;;;19.12;27.20;97503.38;10381795;28;20482;-55
2023/03/20 16:17:52;;;;;;;15.23;9.50;;;;;;;18.74;26.98;97507.50;10411323;28;20056;-55
2023/03/20 16:22:54;;;;;;;20.30;13.30;;;;;;;18.56;27.40;97511.63;10413235;28;20763;-55
2023/03/20 16:27:53;;;;;;;54.65;30.65;;;;;;;18.18;27.86;97459.59;10404935;28;20541;-55
2023/03/20 16:32:57;;;;;;;34.03;14.63;;;;;;;18.26;28.83;97519.72;10404702;28;20071;-55
2023/03/20 16:38:01;;;;;;;221.60;31.50;;;;;;;18.11;30.14;97523.75;10406421;28;20111;-55
2023/03/20 16:43:13;;;;;;;44.95;16.67;;;;;;;17.59;30.88;97487.88;10401640;28;20083;-54
2023/03/20 16:48:12;;;;;;;19.65;13.57;;;;;;;17.58;31.59;97529.00;10402360;28;20462;-53
2023/03/20 16:53:14;;;;;;;39.28;14.82;;;;;;;17.30;32.48;97529.88;10401712;28;20484;-54
2023/03/20 16:58:26;;;;;;;29.90;14.70;;;;;;;17.03;33.22;97547.34;10401051;28;20132;-54
2023/03/20 17:03:38;;;;;;;41.65;18.13;;;;;;;16.76;33.25;97548.13;10432163;28;20119;-54
2023/03/20 17:08:44;;;;;;;53.47;19.85;;;;;;;16.56;33.63;97556.53;10402837;28;20131;-54
2023/03/20 17:13:43;;;;;;;36.65;19.58;;;;;;;16.07;34.31;97515.13;10402566;28;20123;-54
2023/03/20 17:18:44;;;;;;;40.38;22.23;;;;;;;16.13;34.54;97549.88;10403161;28;20029;-54
2023/03/20 17:23:44;;;;;;;38.42;21.75;;;;;;;15.94;35.13;97546.88;10402438;28;20071;-53
2023/03/20 17:28:43;;;;;;;50.38;27.40;;;;;;;15.74;35.49;97539.50;10399816;28;20120;-53
2023/03/20 17:33:42;;;;;;;;;;;;;;;15.65;36.28;97554.53;10413207;28;20047;-53
2023/03/20 17:38:41;;;;;;;56.63;30.70;;;;;;;15.25;36.51;97515.41;10431093;28;20394;-54
2023/03/20 17:43:41;;;;;;;;;;;;;;;15.16;36.64;97550.47;10401219;28;20133;-54
2023/03/20 17:48:40;;;;;;;;;;;;;;;14.99;36.96;97548.22;10401535;28;20011;-53
2023/03/20 17:53:39;;;;;;;48.17;31.37;;;;;;;14.57;37.31;97527.31;10398828;28;19966;-54
2023/03/20 17:58:40;;;;;;;43.17;27.00;;;;;;;14.30;37.82;97530.47;10396611;28;20111;-54
2023/03/20 18:03:39;;;;;;;36.03;22.60;;;;;;;14.32;37.56;97553.06;10401339;28;20144;-54
2023/03/20 18:08:38;;;;;;;37.90;24.17;;;;;;;14.13;37.62;97528.19;10432013;28;20060;-53
2023/03/20 18:13:37;;;;;;;;;;;;;;;14.06;38.26;97555.28;10401790;28;20083;-55
2023/03/20 18:18:36;;;;;;;53.88;33.15;;;;;;;13.81;38.67;97562.69;10398464;28;19960;-55
2023/03/20 18:23:35;;;;;;;67.22;42.10;;;;;;;13.73;39.36;97570.66;10397749;28;20055;-53
2023/03/20 18:28:34;;;;;;;82.43;54.35;;;;;;;13.53;39.59;97577.00;10397682;28;20521;-54
2023/03/20 18:33:33;;;;;;;;;;;;;;;13.32;40.04;97577.31;10399902;28;20131;-56
2023/03/20 18:38:31;;;;;;;32.17;20.98;;;;;;;13.22;39.77;97570.53;10398433;28;19944;-55
2023/03/20 18:43:30;;;;;;;;;;;;;;;13.15;40.35;97582.78;10399719;28;20043;-54
2023/03/20 18:48:29;;;;;;;29.83;19.27;;;;;;;13.13;40.85;97587.16;10397517;28;19923;-53
2023/03/20 18:53:28;;;;;;;;;;;;;;;13.01;40.77;97593.38;10399508;28;20075;-55
2023/03/20 18:58:28;;;;;;;44.97;32.50;;;;;;;12.97;40.88;97589.09;10398044;28;19912;-54
2023/03/20 19:03:28;;;;;;;51.28;35.35;;;;;;;12.82;41.85;97581.50;10399255;28;20534;-54
2023/03/20 19:08:27;;;;;;;48.25;27.38;;;;;;;12.72;42.76;97597.22;10406217;28;20135;-54
2023/03/20 19:13:26;;;;;;;;;;;;;;;12.59;43.76;97595.66;10406413;28;20041;-54
2023/03/20 19:18:25;;;;;;;40.17;25.33;;;;;;;12.56;43.53;97589.63;10405095;28;20395;-54
2023/03/20 19:23:27;;;;;;;50.42;26.88;;;;;;;12.56;43.35;97589.63;10404873;28;20546;-55
2023/03/20 19:28:31;;;;;;;44.35;26.85;;;;;;;12.47;43.07;97565.41;10403332;28;20139;-53
2023/03/20 19:33:30;;;;;;;38.60;26.98;;;;;;;12.62;44.13;97593.00;10405106;28;20135;-55
2023/03/20 19:38:30;;;;;;;44.80;26.67;;;;;;;12.64;43.87;97598.19;10404389;28;20127;-52
2023/03/20 19:43:29;;;;;;;64.72;44.70;;;;;;;12.34;45.08;97557.75;10404231;28;20588;-54
2023/03/20 19:48:29;;;;;;;;;;;;;;;12.54;45.06;97592.25;10404534;28;20127;-54
2023/03/20 19:53:29;;;;;;;68.35;47.08;;;;;;;12.20;44.71;97540.53;10404445;28;20448;-53
2023/03/20 19:58:27;;;;;;;68.22;41.28;;;;;;;12.54;44.74;97591.38;10404452;28;20115;-53
2023/03/20 20:03:26;;;;;;;;;;;;;;;12.57;44.75;97592.19;10404374;28;20426;-54
2023/03/20 20:08:25;;;;;;;69.68;40.28;;;;;;;12.59;45.00;97600.00;10404105;28;19966;-53
2023/03/20 20:13:30;;;;;;;53.15;33.50;;;;;;;12.57;45.02;97587.00;10403983;28;20124;-52
2023/03/20 20:18:29;;;;;;;58.83;36.22;;;;;;;12.43;44.90;97568.94;10402618;28;20107;-53
2023/03/20 20:23:28;;;;;;;;;;;;;;;12.58;45.12;97580.03;10403821;28;20132;-53
2023/03/20 20:28:27;;;;;;;56.63;38.53;;;;;;;12.54;45.45;97591.38;10403790;28;19920;-55
2023/03/20 20:33:26;;;;;;;67.03;43.38;;;;;;;12.25;45.24;97541.34;10403990;28;20119;-55
2023/03/20 20:38:25;;;;;;;;;;;;;;;12.48;45.85;97587.09;10403852;28;20511;-54
2023/03/20 20:43:24;;;;;;;128.52;78.50;;;;;;;12.41;45.91;97580.22;10403552;28;20007;-54
2023/03/20 20:48:23;;;;;;;110.55;76.70;;;;;;;12.47;46.05;97585.38;10403742;28;20111;-53
2023/03/20 20:53:22;;;;;;;80.65;49.90;;;;;;;12.44;46.66;97590.63;10405075;28;20102;-53
2023/03/20 20:58:21;;;;;;;75.72;50.78;;;;;;;12.43;46.85;97599.31;10404175;28;20055;-54
2023/03/20 21:03:20;;;;;;;88.30;57.45;;;;;;;12.36;47.12;97582.03;10404208;28;20067;-54
2023/03/20 21:08:20;;;;;;;87.70;55.67;;;;;;;11.98;46.86;97528.63;10405114;28;20032;-54
2023/03/20 21:13:19;;;;;;;60.88;40.47;;;;;;;12.23;46.71;97587.34;10402235;28;20111;-53
2023/03/20 21:18:17;;;;;;;47.67;33.90;;;;;;;12.13;46.79;97584.84;10417748;28;20558;-54
2023/03/20 21:23:16;;;;;;;53.00;35.83;;;;;;;12.10;46.81;97583.13;10403149;28;20578;-54
2023/03/20 21:28:15;;;;;;;75.43;52.13;;;;;;;12.02;46.64;97570.22;10403003;28;20401;-54
2023/03/20 21:33:14;;;;;;;81.45;57.30;;;;;;;12.06;47.23;97589.22;10401829;28;20123;-54
2023/03/20 21:38:15;;;;;;;97.25;62.35;;;;;;;12.01;47.49;97581.47;10402798;28;20028;-54
2023/03/20 21:43:15;;;;;;;105.95;68.28;;;;;;;11.95;48.78;97573.75;10403131;28;20116;-54
2023/03/20 21:48:14;;;;;;;85.53;54.20;;;;;;;11.94;48.91;97581.53;10402892;28;20552;-53
2023/03/20 21:53:14;;;;;;;85.47;48.47;;;;;;;11.77;49.19;97566.97;10402301;28;20032;-54
2023/03/20 21:58:13;;;;;;;77.93;45.28;;;;;;;11.83;49.25;97574.72;10403130;28;20056;-53
2023/03/20 22:03:12;;;;;;;76.00;47.97;;;;;;;11.72;49.54;97568.75;10400381;28;20040;-53
2023/03/20 22:08:12;;;;;;;71.80;48.72;;;;;;;11.65;50.32;97575.72;10401700;28;20037;-55
2023/03/20 22:13:11;;;;;;;66.63;44.80;;;;;;;11.57;49.30;97574.06;10435779;28;20063;-53
2023/03/20 22:18:10;;;;;;;82.20;50.97;;;;;;;11.56;49.78;97569.75;10401441;28;20028;-53
2023/03/20 22:23:09;;;;;;;74.35;51.50;;;;;;;11.42;49.92;97544.72;10401713;28;20029;-52
2023/03/20 22:28:08;;;;;;;89.32;52.65;;;;;;;11.57;50.09;97564.56;10401502;28;20135;-53
2023/03/20 22:33:07;;;;;;;84.35;54.80;;;;;;;11.48;50.79;97542.94;10401320;28;20032;-53
2023/03/20 22:38:06;;;;;;;72.65;48.05;;;;;;;11.53;52.10;97556.78;10401115;28;20115;-53
2023/03/20 22:43:05;;;;;;;72.50;45.95;;;;;;;11.52;51.08;97565.44;10409226;28;20036;-55
2023/03/20 22:48:04;;;;;;;70.68;43.97;;;;;;;11.55;51.56;97565.41;10408577;28;20494;-52
2023/03/20 22:53:03;;;;;;;75.30;45.13;;;;;;;11.60;50.96;97561.06;10409738;28;20080;-52
2023/03/20 22:58:02;;;;;;;110.47;48.13;;;;;;;11.57;51.58;97558.47;10409759;28;20031;-52
2023/03/20 23:03:03;;;;;;;64.68;33.22;;;;;;;11.58;51.24;97555.00;10408247;28;20545;-53
2023/03/20 23:08:03;;;;;;;50.08;27.83;;;;;;;11.51;52.04;97553.34;10408797;28;20120;-52
2023/03/20 23:13:03;;;;;;;40.05;23.08;;;;;;;11.46;52.55;97563.75;10407285;28;20068;-52
2023/03/20 23:18:02;;;;;;;31.52;20.40;;;;;;;11.44;52.70;97560.31;10404635;28;20537;-52
2023/03/20 23:23:01;;;;;;;;;;;;;;;11.30;53.32;97554.34;10401486;28;20477;-54